Main page
METAR-TAF:

METAR-TAF

Airports :

Mashhad International Airport

Mashhad, Iran

latitude: 36-16N, longitude: 059-38E, elevation: 989 m

Current weather observation

The report was made 43 minutes ago, at 20:00 UTC
Wind 8 kt from the South/Southeast
Temperature 12°C
Humidity 76%
Pressure 1020 hPa
Visibility 10 km or more
Scattered clouds at a height of 2000 ft
Scattered clouds at a height of 3500 ft

METAR: OIMM 192000Z 16008KT 9999 SCT020 SCT035 12/08 Q1020 A3012

Time: 01:13 (20:43 UTC)

Forecast

The report was made 3 hours and 33 minutes ago, at 17:10 UTC
Forecast valid from 19 at 18 UTC to 20 at 24 UTC
Wind 7 kt from the Southeast
Visibility: 7000 m
Overcast at a height of 1500 ft
Temporary
from 19 at 21 UTC to 20 at 03 UTC
Visibility: 3000 m
Overcast at a height of 700 ft
mist
Becoming
from 20 at 03 UTC to 20 at 05 UTC
Scattered clouds at a height of 2500 ft

TAF: OIMM 191710Z 1918/2024 13007KT 7000 OVC015 TEMPO 1921/2003 3000 BR OVC007 BECMG 2003/2005 SCT025

Weather observations and forecasts of more than 4000 airports (METAR and TAF reports).

The available stations are represented by yellow and red dots on the map.

Hover mouse over dot to see the name of the station.

Then click to see weather observations and forecasts.

To change the map : click on the green buttons with a black cross to zoom in, on the green button with a dash to zoom out, or on the green arrows for adjacent maps.


METAR-TAF: